sensor_id;sensor_type;location;lat;lon;timestamp;temperature;humidity
17385;DHT22;8810;48.680;8.894;2023-03-23T00:00:53;12.90;99.90
17385;DHT22;8810;48.680;8.894;2023-03-23T00:03:20;13.00;99.90
17385;DHT22;8810;48.680;8.894;2023-03-23T00:05:48;13.00;99.90
17385;DHT22;8810;48.680;8.894;2023-03-23T00:08:17;13.00;99.90
17385;DHT22;8810;48.680;8.894;2023-03-23T00:10:50;13.00;99.90
17385;DHT22;8810;48.680;8.894;2023-03-23T00:13:18;13.00;99.90
17385;DHT22;8810;48.680;8.894;2023-03-23T00:15:46;13.00;99.90
17385;DHT22;8810;48.680;8.894;2023-03-23T00:18:14;13.00;99.90
17385;DHT22;8810;48.680;8.894;2023-03-23T00:20:47;13.00;99.90
17385;DHT22;8810;48.680;8.894;2023-03-23T00:23:15;13.00;99.90
17385;DHT22;8810;48.680;8.894;2023-03-23T00:25:45;13.00;99.90
17385;DHT22;8810;48.680;8.894;2023-03-23T00:28:14;13.00;99.90
17385;DHT22;8810;48.680;8.894;2023-03-23T00:30:44;13.00;99.90
17385;DHT22;8810;48.680;8.894;2023-03-23T00:33:12;13.00;99.90
17385;DHT22;8810;48.680;8.894;2023-03-23T00:35:40;13.00;99.90
17385;DHT22;8810;48.680;8.894;2023-03-23T00:38:07;12.90;99.90
17385;DHT22;8810;48.680;8.894;2023-03-23T00:40:34;12.90;99.90
17385;DHT22;8810;48.680;8.894;2023-03-23T00:43:02;12.90;99.90
17385;DHT22;8810;48.680;8.894;2023-03-23T00:45:31;12.90;99.90
17385;DHT22;8810;48.680;8.894;2023-03-23T00:48:00;12.90;99.90
17385;DHT22;8810;48.680;8.894;2023-03-23T00:50:30;12.90;99.90
17385;DHT22;8810;48.680;8.894;2023-03-23T00:52:57;12.90;99.90
17385;DHT22;8810;48.680;8.894;2023-03-23T00:55:24;12.80;99.90
17385;DHT22;8810;48.680;8.894;2023-03-23T00:57:51;12.80;99.90
17385;DHT22;8810;48.680;8.894;2023-03-23T01:00:19;12.80;99.90
17385;DHT22;8810;48.680;8.894;2023-03-23T01:02:48;12.80;99.90
17385;DHT22;8810;48.680;8.894;2023-03-23T01:05:17;12.70;99.90
17385;DHT22;8810;48.680;8.894;2023-03-23T01:07:44;12.70;99.90
17385;DHT22;8810;48.680;8.894;2023-03-23T01:10:12;12.70;99.90
17385;DHT22;8810;48.680;8.894;2023-03-23T01:12:42;12.70;99.90
17385;DHT22;8810;48.680;8.894;2023-03-23T01:15:12;12.70;99.90
17385;DHT22;8810;48.680;8.894;2023-03-23T01:17:39;12.70;99.90
17385;DHT22;8810;48.680;8.894;2023-03-23T01:20:09;12.70;99.90
17385;DHT22;8810;48.680;8.894;2023-03-23T01:22:36;12.70;99.90
17385;DHT22;8810;48.680;8.894;2023-03-23T01:25:05;12.70;99.90
17385;DHT22;8810;48.680;8.894;2023-03-23T01:27:32;12.60;99.90
17385;DHT22;8810;48.680;8.894;2023-03-23T01:29:59;12.60;99.90
17385;DHT22;8810;48.680;8.894;2023-03-23T01:32:26;12.60;99.90
17385;DHT22;8810;48.680;8.894;2023-03-23T01:34:53;12.60;99.90
17385;DHT22;8810;48.680;8.894;2023-03-23T01:37:21;12.60;99.90
17385;DHT22;8810;48.680;8.894;2023-03-23T01:39:52;12.60;99.90
17385;DHT22;8810;48.680;8.894;2023-03-23T01:42:21;12.50;99.90
17385;DHT22;8810;48.680;8.894;2023-03-23T01:48:00;12.40;99.90
17385;DHT22;8810;48.680;8.894;2023-03-23T01:50:29;12.40;99.90
17385;DHT22;8810;48.680;8.894;2023-03-23T01:53:04;12.40;99.90
17385;DHT22;8810;48.680;8.894;2023-03-23T01:55:34;12.30;99.90
17385;DHT22;8810;48.680;8.894;2023-03-23T01:58:04;12.30;99.90
17385;DHT22;8810;48.680;8.894;2023-03-23T02:00:31;12.20;99.90
17385;DHT22;8810;48.680;8.894;2023-03-23T02:03:00;12.20;99.90
17385;DHT22;8810;48.680;8.894;2023-03-23T02:05:30;12.20;99.90
17385;DHT22;8810;48.680;8.894;2023-03-23T02:08:01;12.20;99.90
17385;DHT22;8810;48.680;8.894;2023-03-23T02:10:30;12.10;99.90
17385;DHT22;8810;48.680;8.894;2023-03-23T02:12:57;12.10;99.90
17385;DHT22;8810;48.680;8.894;2023-03-23T02:15:31;12.00;99.90
17385;DHT22;8810;48.680;8.894;2023-03-23T02:18:04;12.00;99.90
17385;DHT22;8810;48.680;8.894;2023-03-23T02:20:45;11.90;99.90
17385;DHT22;8810;48.680;8.894;2023-03-23T02:23:46;11.90;99.90
17385;DHT22;8810;48.680;8.894;2023-03-23T02:26:29;11.80;99.90
17385;DHT22;8810;48.680;8.894;2023-03-23T02:29:14;11.80;99.90
17385;DHT22;8810;48.680;8.894;2023-03-23T02:32:04;11.70;99.90
17385;DHT22;8810;48.680;8.894;2023-03-23T02:34:39;11.70;99.90
17385;DHT22;8810;48.680;8.894;2023-03-23T02:37:10;11.70;99.90
17385;DHT22;8810;48.680;8.894;2023-03-23T02:39:43;11.60;99.90
17385;DHT22;8810;48.680;8.894;2023-03-23T02:42:14;11.60;99.90
17385;DHT22;8810;48.680;8.894;2023-03-23T02:44:44;11.50;99.90
17385;DHT22;8810;48.680;8.894;2023-03-23T02:47:16;11.50;99.90
17385;DHT22;8810;48.680;8.894;2023-03-23T02:49:48;11.50;99.90
17385;DHT22;8810;48.680;8.894;2023-03-23T02:52:21;11.50;99.90
17385;DHT22;8810;48.680;8.894;2023-03-23T02:54:49;11.50;99.90
17385;DHT22;8810;48.680;8.894;2023-03-23T02:57:17;11.50;99.90
17385;DHT22;8810;48.680;8.894;2023-03-23T02:59:44;11.50;99.90
17385;DHT22;8810;48.680;8.894;2023-03-23T03:02:13;11.50;99.90
17385;DHT22;8810;48.680;8.894;2023-03-23T03:04:42;11.60;99.90
17385;DHT22;8810;48.680;8.894;2023-03-23T03:07:26;11.60;99.90
17385;DHT22;8810;48.680;8.894;2023-03-23T03:09:57;11.70;99.90
17385;DHT22;8810;48.680;8.894;2023-03-23T03:12:31;11.80;99.90
17385;DHT22;8810;48.680;8.894;2023-03-23T03:15:09;11.80;99.90
17385;DHT22;8810;48.680;8.894;2023-03-23T03:17:41;11.80;99.90
17385;DHT22;8810;48.680;8.894;2023-03-23T03:20:10;11.90;99.90
17385;DHT22;8810;48.680;8.894;2023-03-23T03:22:43;11.90;99.90
17385;DHT22;8810;48.680;8.894;2023-03-23T03:25:14;11.90;99.90
17385;DHT22;8810;48.680;8.894;2023-03-23T03:27:44;11.90;99.90
17385;DHT22;8810;48.680;8.894;2023-03-23T03:30:17;11.90;99.90
17385;DHT22;8810;48.680;8.894;2023-03-23T03:32:47;11.90;99.90
17385;DHT22;8810;48.680;8.894;2023-03-23T03:35:16;11.90;99.90
17385;DHT22;8810;48.680;8.894;2023-03-23T03:37:45;12.00;99.90
17385;DHT22;8810;48.680;8.894;2023-03-23T03:40:15;12.00;99.90
17385;DHT22;8810;48.680;8.894;2023-03-23T03:42:44;12.00;99.90
17385;DHT22;8810;48.680;8.894;2023-03-23T03:45:13;12.00;99.90
17385;DHT22;8810;48.680;8.894;2023-03-23T03:47:40;12.00;99.90
17385;DHT22;8810;48.680;8.894;2023-03-23T03:50:08;12.00;99.90
17385;DHT22;8810;48.680;8.894;2023-03-23T03:52:36;12.00;99.90
17385;DHT22;8810;48.680;8.894;2023-03-23T03:55:06;12.00;99.90
17385;DHT22;8810;48.680;8.894;2023-03-23T03:57:33;12.00;99.90
17385;DHT22;8810;48.680;8.894;2023-03-23T04:00:00;12.00;99.90
17385;DHT22;8810;48.680;8.894;2023-03-23T04:02:31;12.00;99.90
17385;DHT22;8810;48.680;8.894;2023-03-23T04:04:58;12.00;99.90
17385;DHT22;8810;48.680;8.894;2023-03-23T04:07:28;12.00;99.90
17385;DHT22;8810;48.680;8.894;2023-03-23T04:09:55;12.00;99.90
17385;DHT22;8810;48.680;8.894;2023-03-23T04:12:23;12.00;99.90
17385;DHT22;8810;48.680;8.894;2023-03-23T04:14:50;12.00;99.90
17385;DHT22;8810;48.680;8.894;2023-03-23T04:17:17;12.10;99.90
17385;DHT22;8810;48.680;8.894;2023-03-23T04:19:45;12.10;99.90
17385;DHT22;8810;48.680;8.894;2023-03-23T04:22:13;12.10;99.90
17385;DHT22;8810;48.680;8.894;2023-03-23T04:24:42;12.20;99.90
17385;DHT22;8810;48.680;8.894;2023-03-23T04:27:08;12.20;99.90
17385;DHT22;8810;48.680;8.894;2023-03-23T04:29:39;12.20;99.90
17385;DHT22;8810;48.680;8.894;2023-03-23T04:32:06;12.20;99.90
17385;DHT22;8810;48.680;8.894;2023-03-23T04:34:33;12.20;99.90
17385;DHT22;8810;48.680;8.894;2023-03-23T04:37:00;12.20;99.90
17385;DHT22;8810;48.680;8.894;2023-03-23T04:39:27;12.20;99.90
17385;DHT22;8810;48.680;8.894;2023-03-23T04:41:54;12.20;99.90
17385;DHT22;8810;48.680;8.894;2023-03-23T04:44:21;12.20;99.90
17385;DHT22;8810;48.680;8.894;2023-03-23T04:46:49;12.10;99.90
17385;DHT22;8810;48.680;8.894;2023-03-23T04:49:19;12.10;99.90
17385;DHT22;8810;48.680;8.894;2023-03-23T04:51:49;12.10;99.90
17385;DHT22;8810;48.680;8.894;2023-03-23T04:54:17;12.10;99.90
17385;DHT22;8810;48.680;8.894;2023-03-23T04:56:44;12.10;99.90
17385;DHT22;8810;48.680;8.894;2023-03-23T04:59:11;12.10;99.90
17385;DHT22;8810;48.680;8.894;2023-03-23T05:01:39;12.10;99.90
17385;DHT22;8810;48.680;8.894;2023-03-23T05:04:12;12.10;99.90
17385;DHT22;8810;48.680;8.894;2023-03-23T05:06:42;12.00;99.90
17385;DHT22;8810;48.680;8.894;2023-03-23T05:09:10;12.00;99.90
17385;DHT22;8810;48.680;8.894;2023-03-23T05:11:37;12.00;99.90
17385;DHT22;8810;48.680;8.894;2023-03-23T05:14:04;11.90;99.90
17385;DHT22;8810;48.680;8.894;2023-03-23T05:16:31;11.90;99.90
17385;DHT22;8810;48.680;8.894;2023-03-23T05:18:58;11.90;99.90
17385;DHT22;8810;48.680;8.894;2023-03-23T05:21:26;11.90;99.90
17385;DHT22;8810;48.680;8.894;2023-03-23T05:23:53;12.00;99.90
17385;DHT22;8810;48.680;8.894;2023-03-23T05:26:21;12.00;99.90
17385;DHT22;8810;48.680;8.894;2023-03-23T05:28:49;12.00;99.90
17385;DHT22;8810;48.680;8.894;2023-03-23T05:31:19;12.00;99.90
17385;DHT22;8810;48.680;8.894;2023-03-23T05:33:45;12.00;99.90
17385;DHT22;8810;48.680;8.894;2023-03-23T05:36:12;12.00;99.90
17385;DHT22;8810;48.680;8.894;2023-03-23T05:38:41;12.00;99.90
17385;DHT22;8810;48.680;8.894;2023-03-23T05:41:10;12.10;99.90
17385;DHT22;8810;48.680;8.894;2023-03-23T05:43:37;12.10;99.90
17385;DHT22;8810;48.680;8.894;2023-03-23T05:46:04;12.10;99.90
17385;DHT22;8810;48.680;8.894;2023-03-23T05:48:32;12.20;99.90
17385;DHT22;8810;48.680;8.894;2023-03-23T05:50:59;12.20;99.90
17385;DHT22;8810;48.680;8.894;2023-03-23T05:53:26;12.20;99.90
17385;DHT22;8810;48.680;8.894;2023-03-23T05:55:58;12.30;99.90
17385;DHT22;8810;48.680;8.894;2023-03-23T05:58:25;12.30;99.90
17385;DHT22;8810;48.680;8.894;2023-03-23T06:00:52;12.30;99.90
17385;DHT22;8810;48.680;8.894;2023-03-23T06:03:19;12.30;99.90
17385;DHT22;8810;48.680;8.894;2023-03-23T06:05:46;12.40;99.90
17385;DHT22;8810;48.680;8.894;2023-03-23T06:08:13;12.40;99.90
17385;DHT22;8810;48.680;8.894;2023-03-23T06:10:40;12.50;99.90
17385;DHT22;8810;48.680;8.894;2023-03-23T06:13:09;12.50;99.90
17385;DHT22;8810;48.680;8.894;2023-03-23T06:15:36;12.60;99.90
17385;DHT22;8810;48.680;8.894;2023-03-23T06:18:03;12.60;99.90
17385;DHT22;8810;48.680;8.894;2023-03-23T06:20:31;12.70;99.90
17385;DHT22;8810;48.680;8.894;2023-03-23T06:22:58;12.80;99.90
17385;DHT22;8810;48.680;8.894;2023-03-23T06:25:25;12.80;99.90
17385;DHT22;8810;48.680;8.894;2023-03-23T06:27:52;12.80;99.90
17385;DHT22;8810;48.680;8.894;2023-03-23T06:30:20;12.80;99.90
17385;DHT22;8810;48.680;8.894;2023-03-23T06:32:47;12.80;99.90
17385;DHT22;8810;48.680;8.894;2023-03-23T06:35:14;12.90;99.90
17385;DHT22;8810;48.680;8.894;2023-03-23T06:37:41;12.90;99.90
17385;DHT22;8810;48.680;8.894;2023-03-23T06:40:09;12.90;99.90
17385;DHT22;8810;48.680;8.894;2023-03-23T06:42:37;12.90;99.90
17385;DHT22;8810;48.680;8.894;2023-03-23T06:45:05;12.90;99.90
17385;DHT22;8810;48.680;8.894;2023-03-23T06:47:34;12.90;99.90
17385;DHT22;8810;48.680;8.894;2023-03-23T06:50:01;12.90;99.90
17385;DHT22;8810;48.680;8.894;2023-03-23T06:52:28;12.90;99.90
17385;DHT22;8810;48.680;8.894;2023-03-23T06:54:54;12.90;99.90
17385;DHT22;8810;48.680;8.894;2023-03-23T06:57:21;13.00;99.90
17385;DHT22;8810;48.680;8.894;2023-03-23T06:59:48;13.00;99.90
17385;DHT22;8810;48.680;8.894;2023-03-23T07:02:15;13.00;99.90
17385;DHT22;8810;48.680;8.894;2023-03-23T07:04:44;13.10;99.90
17385;DHT22;8810;48.680;8.894;2023-03-23T07:07:11;13.00;99.90
17385;DHT22;8810;48.680;8.894;2023-03-23T07:09:40;13.00;99.90
17385;DHT22;8810;48.680;8.894;2023-03-23T07:12:07;13.10;99.90
17385;DHT22;8810;48.680;8.894;2023-03-23T07:14:35;13.00;99.90
17385;DHT22;8810;48.680;8.894;2023-03-23T07:17:03;13.00;99.90
17385;DHT22;8810;48.680;8.894;2023-03-23T07:19:31;13.10;99.90
17385;DHT22;8810;48.680;8.894;2023-03-23T07:21:59;13.00;99.90
17385;DHT22;8810;48.680;8.894;2023-03-23T07:24:26;13.10;99.90
17385;DHT22;8810;48.680;8.894;2023-03-23T07:26:53;13.10;99.90
17385;DHT22;8810;48.680;8.894;2023-03-23T07:29:21;13.10;99.90
17385;DHT22;8810;48.680;8.894;2023-03-23T07:31:48;13.10;99.90
17385;DHT22;8810;48.680;8.894;2023-03-23T07:34:16;13.10;99.90
17385;DHT22;8810;48.680;8.894;2023-03-23T07:36:43;13.20;99.90
17385;DHT22;8810;48.680;8.894;2023-03-23T07:39:11;13.20;99.90
17385;DHT22;8810;48.680;8.894;2023-03-23T07:41:38;13.30;99.90
17385;DHT22;8810;48.680;8.894;2023-03-23T07:44:06;13.30;99.90
17385;DHT22;8810;48.680;8.894;2023-03-23T07:46:33;13.40;99.90
17385;DHT22;8810;48.680;8.894;2023-03-23T07:49:00;13.50;99.90
17385;DHT22;8810;48.680;8.894;2023-03-23T07:51:30;13.60;99.90
17385;DHT22;8810;48.680;8.894;2023-03-23T07:53:57;13.70;99.90
17385;DHT22;8810;48.680;8.894;2023-03-23T07:56:26;13.70;99.90
17385;DHT22;8810;48.680;8.894;2023-03-23T07:58:53;13.60;99.90
17385;DHT22;8810;48.680;8.894;2023-03-23T08:01:20;13.60;99.90
17385;DHT22;8810;48.680;8.894;2023-03-23T08:03:46;13.60;99.90
17385;DHT22;8810;48.680;8.894;2023-03-23T08:06:13;13.60;99.90
17385;DHT22;8810;48.680;8.894;2023-03-23T08:08:40;13.60;99.90
17385;DHT22;8810;48.680;8.894;2023-03-23T08:11:07;13.60;99.90
17385;DHT22;8810;48.680;8.894;2023-03-23T08:13:36;13.60;99.90
17385;DHT22;8810;48.680;8.894;2023-03-23T08:16:03;13.60;99.90
17385;DHT22;8810;48.680;8.894;2023-03-23T08:18:30;13.60;99.90
17385;DHT22;8810;48.680;8.894;2023-03-23T08:21:00;13.60;99.90
17385;DHT22;8810;48.680;8.894;2023-03-23T08:23:26;13.70;99.90
17385;DHT22;8810;48.680;8.894;2023-03-23T08:25:53;13.80;99.90
17385;DHT22;8810;48.680;8.894;2023-03-23T08:28:20;13.90;99.90
17385;DHT22;8810;48.680;8.894;2023-03-23T08:30:48;13.90;99.90
17385;DHT22;8810;48.680;8.894;2023-03-23T08:33:16;14.00;99.90
17385;DHT22;8810;48.680;8.894;2023-03-23T08:35:43;14.00;99.90
17385;DHT22;8810;48.680;8.894;2023-03-23T08:38:10;13.90;99.90
17385;DHT22;8810;48.680;8.894;2023-03-23T08:40:37;13.90;99.90
17385;DHT22;8810;48.680;8.894;2023-03-23T08:43:05;13.90;99.90
17385;DHT22;8810;48.680;8.894;2023-03-23T08:45:32;14.00;99.90
17385;DHT22;8810;48.680;8.894;2023-03-23T08:48:00;14.00;99.90
17385;DHT22;8810;48.680;8.894;2023-03-23T08:50:29;14.10;99.90
17385;DHT22;8810;48.680;8.894;2023-03-23T08:52:57;14.00;99.90
17385;DHT22;8810;48.680;8.894;2023-03-23T08:55:24;14.10;99.90
17385;DHT22;8810;48.680;8.894;2023-03-23T08:57:51;14.00;99.90
17385;DHT22;8810;48.680;8.894;2023-03-23T09:00:20;14.00;99.90
17385;DHT22;8810;48.680;8.894;2023-03-23T09:02:52;14.00;99.90
17385;DHT22;8810;48.680;8.894;2023-03-23T09:05:23;14.10;99.90
17385;DHT22;8810;48.680;8.894;2023-03-23T09:07:52;14.10;99.90
17385;DHT22;8810;48.680;8.894;2023-03-23T09:10:20;14.10;99.90
17385;DHT22;8810;48.680;8.894;2023-03-23T09:12:47;14.10;99.90
17385;DHT22;8810;48.680;8.894;2023-03-23T09:15:16;14.10;99.90
17385;DHT22;8810;48.680;8.894;2023-03-23T09:17:45;14.00;99.90
17385;DHT22;8810;48.680;8.894;2023-03-23T09:20:14;14.10;99.90
17385;DHT22;8810;48.680;8.894;2023-03-23T09:22:44;14.20;99.90
17385;DHT22;8810;48.680;8.894;2023-03-23T09:25:13;14.30;99.90
17385;DHT22;8810;48.680;8.894;2023-03-23T09:27:41;14.20;99.90
17385;DHT22;8810;48.680;8.894;2023-03-23T09:30:10;14.20;99.90
17385;DHT22;8810;48.680;8.894;2023-03-23T09:32:38;14.30;99.90
17385;DHT22;8810;48.680;8.894;2023-03-23T09:35:07;14.20;99.90
17385;DHT22;8810;48.680;8.894;2023-03-23T09:37:35;14.10;99.90
17385;DHT22;8810;48.680;8.894;2023-03-23T09:40:07;14.10;99.90
17385;DHT22;8810;48.680;8.894;2023-03-23T09:42:45;14.10;99.90
17385;DHT22;8810;48.680;8.894;2023-03-23T09:45:20;14.10;99.90
17385;DHT22;8810;48.680;8.894;2023-03-23T09:48:02;14.20;99.90
17385;DHT22;8810;48.680;8.894;2023-03-23T09:50:32;14.30;99.90
17385;DHT22;8810;48.680;8.894;2023-03-23T09:53:08;14.30;99.90
17385;DHT22;8810;48.680;8.894;2023-03-23T09:55:38;14.30;99.90
17385;DHT22;8810;48.680;8.894;2023-03-23T09:58:11;14.30;99.90
17385;DHT22;8810;48.680;8.894;2023-03-23T10:00:46;14.60;99.90
17385;DHT22;8810;48.680;8.894;2023-03-23T10:03:15;14.90;99.90
17385;DHT22;8810;48.680;8.894;2023-03-23T10:05:45;15.00;99.90
17385;DHT22;8810;48.680;8.894;2023-03-23T10:08:14;15.20;99.90
17385;DHT22;8810;48.680;8.894;2023-03-23T10:10:54;15.20;99.90
17385;DHT22;8810;48.680;8.894;2023-03-23T10:13:41;15.00;99.90
17385;DHT22;8810;48.680;8.894;2023-03-23T10:16:11;14.90;99.90
17385;DHT22;8810;48.680;8.894;2023-03-23T10:18:43;14.80;99.90
17385;DHT22;8810;48.680;8.894;2023-03-23T10:21:17;14.90;99.90
17385;DHT22;8810;48.680;8.894;2023-03-23T10:23:54;14.90;99.90
17385;DHT22;8810;48.680;8.894;2023-03-23T10:26:33;15.00;99.90
17385;DHT22;8810;48.680;8.894;2023-03-23T10:29:12;15.10;99.90
17385;DHT22;8810;48.680;8.894;2023-03-23T10:31:42;15.10;99.90
17385;DHT22;8810;48.680;8.894;2023-03-23T10:34:13;15.20;99.90
17385;DHT22;8810;48.680;8.894;2023-03-23T10:36:52;15.20;99.90
17385;DHT22;8810;48.680;8.894;2023-03-23T10:39:24;15.20;99.90
17385;DHT22;8810;48.680;8.894;2023-03-23T10:41:53;15.50;99.90
17385;DHT22;8810;48.680;8.894;2023-03-23T10:44:23;15.60;99.90
17385;DHT22;8810;48.680;8.894;2023-03-23T10:46:56;15.80;99.90
17385;DHT22;8810;48.680;8.894;2023-03-23T10:49:26;16.10;99.90
17385;DHT22;8810;48.680;8.894;2023-03-23T10:51:59;16.00;99.90
17385;DHT22;8810;48.680;8.894;2023-03-23T10:54:32;16.00;99.90
17385;DHT22;8810;48.680;8.894;2023-03-23T10:57:13;16.10;99.90
17385;DHT22;8810;48.680;8.894;2023-03-23T10:59:44;16.20;99.90
17385;DHT22;8810;48.680;8.894;2023-03-23T11:02:15;16.20;99.90
17385;DHT22;8810;48.680;8.894;2023-03-23T11:04:46;16.10;99.90
17385;DHT22;8810;48.680;8.894;2023-03-23T11:07:20;16.00;99.90
17385;DHT22;8810;48.680;8.894;2023-03-23T11:09:55;15.90;99.90
17385;DHT22;8810;48.680;8.894;2023-03-23T11:12:25;15.80;99.90
17385;DHT22;8810;48.680;8.894;2023-03-23T11:14:52;15.50;99.90
17385;DHT22;8810;48.680;8.894;2023-03-23T11:17:29;15.50;99.90
17385;DHT22;8810;48.680;8.894;2023-03-23T11:19:56;15.50;99.90
17385;DHT22;8810;48.680;8.894;2023-03-23T11:22:26;15.60;99.90
17385;DHT22;8810;48.680;8.894;2023-03-23T11:24:54;15.70;99.90
17385;DHT22;8810;48.680;8.894;2023-03-23T11:27:24;15.70;99.90
17385;DHT22;8810;48.680;8.894;2023-03-23T11:29:53;15.80;99.90
17385;DHT22;8810;48.680;8.894;2023-03-23T11:32:26;15.90;99.90
17385;DHT22;8810;48.680;8.894;2023-03-23T11:34:55;16.00;99.90
17385;DHT22;8810;48.680;8.894;2023-03-23T11:37:29;16.00;99.90
17385;DHT22;8810;48.680;8.894;2023-03-23T11:39:58;16.10;99.90
17385;DHT22;8810;48.680;8.894;2023-03-23T11:42:36;16.10;99.90
17385;DHT22;8810;48.680;8.894;2023-03-23T11:45:14;16.10;99.90
17385;DHT22;8810;48.680;8.894;2023-03-23T11:47:49;16.00;99.90
17385;DHT22;8810;48.680;8.894;2023-03-23T11:50:20;16.10;99.90
17385;DHT22;8810;48.680;8.894;2023-03-23T11:52:53;16.10;99.90
17385;DHT22;8810;48.680;8.894;2023-03-23T11:55:25;16.10;99.90
17385;DHT22;8810;48.680;8.894;2023-03-23T11:57:55;16.00;99.90
17385;DHT22;8810;48.680;8.894;2023-03-23T12:00:24;16.00;99.90
17385;DHT22;8810;48.680;8.894;2023-03-23T12:02:57;16.00;99.90
17385;DHT22;8810;48.680;8.894;2023-03-23T12:05:41;16.00;99.90
17385;DHT22;8810;48.680;8.894;2023-03-23T12:08:40;15.90;99.90
17385;DHT22;8810;48.680;8.894;2023-03-23T12:11:16;15.90;99.90
17385;DHT22;8810;48.680;8.894;2023-03-23T12:13:59;15.80;99.90
17385;DHT22;8810;48.680;8.894;2023-03-23T12:16:39;15.80;99.90
17385;DHT22;8810;48.680;8.894;2023-03-23T12:19:13;15.80;99.90
17385;DHT22;8810;48.680;8.894;2023-03-23T12:21:49;15.90;99.90
17385;DHT22;8810;48.680;8.894;2023-03-23T12:24:31;15.90;99.90
17385;DHT22;8810;48.680;8.894;2023-03-23T12:27:03;15.90;99.90
17385;DHT22;8810;48.680;8.894;2023-03-23T12:30:11;15.90;99.90
17385;DHT22;8810;48.680;8.894;2023-03-23T12:32:50;16.00;99.90
17385;DHT22;8810;48.680;8.894;2023-03-23T12:35:30;16.10;99.90
17385;DHT22;8810;48.680;8.894;2023-03-23T12:38:10;16.30;99.90
17385;DHT22;8810;48.680;8.894;2023-03-23T12:40:57;16.50;99.90
17385;DHT22;8810;48.680;8.894;2023-03-23T12:43:31;16.70;99.90
17385;DHT22;8810;48.680;8.894;2023-03-23T12:46:17;16.80;99.90
17385;DHT22;8810;48.680;8.894;2023-03-23T12:48:51;16.90;99.90
17385;DHT22;8810;48.680;8.894;2023-03-23T12:51:23;16.90;99.90
17385;DHT22;8810;48.680;8.894;2023-03-23T12:53:57;17.00;99.90
17385;DHT22;8810;48.680;8.894;2023-03-23T12:56:29;17.00;99.90
17385;DHT22;8810;48.680;8.894;2023-03-23T12:59:05;17.10;99.90
17385;DHT22;8810;48.680;8.894;2023-03-23T13:01:40;17.20;99.90
17385;DHT22;8810;48.680;8.894;2023-03-23T13:04:10;17.10;99.90
17385;DHT22;8810;48.680;8.894;2023-03-23T13:06:39;17.00;99.90
17385;DHT22;8810;48.680;8.894;2023-03-23T13:09:11;16.90;99.90
17385;DHT22;8810;48.680;8.894;2023-03-23T13:11:41;17.00;99.90
17385;DHT22;8810;48.680;8.894;2023-03-23T13:14:31;17.20;99.90
17385;DHT22;8810;48.680;8.894;2023-03-23T13:17:06;17.20;99.90
17385;DHT22;8810;48.680;8.894;2023-03-23T13:19:49;17.40;99.90
17385;DHT22;8810;48.680;8.894;2023-03-23T13:22:20;17.40;99.90
17385;DHT22;8810;48.680;8.894;2023-03-23T13:24:52;17.40;99.90
17385;DHT22;8810;48.680;8.894;2023-03-23T13:27:23;17.20;99.90
17385;DHT22;8810;48.680;8.894;2023-03-23T13:29:51;17.10;99.90
17385;DHT22;8810;48.680;8.894;2023-03-23T13:32:19;17.10;99.90
17385;DHT22;8810;48.680;8.894;2023-03-23T13:34:47;17.00;99.90
17385;DHT22;8810;48.680;8.894;2023-03-23T13:37:21;17.10;99.90
17385;DHT22;8810;48.680;8.894;2023-03-23T13:39:51;17.20;99.90
17385;DHT22;8810;48.680;8.894;2023-03-23T13:42:22;17.30;99.90
17385;DHT22;8810;48.680;8.894;2023-03-23T13:45:05;17.40;99.90
17385;DHT22;8810;48.680;8.894;2023-03-23T13:47:40;17.60;99.90
17385;DHT22;8810;48.680;8.894;2023-03-23T13:50:25;17.70;99.90
17385;DHT22;8810;48.680;8.894;2023-03-23T13:52:58;17.60;99.90
17385;DHT22;8810;48.680;8.894;2023-03-23T13:55:42;17.60;99.90
17385;DHT22;8810;48.680;8.894;2023-03-23T13:58:22;17.60;99.90
17385;DHT22;8810;48.680;8.894;2023-03-23T14:01:02;17.50;99.90
17385;DHT22;8810;48.680;8.894;2023-03-23T14:03:36;17.50;99.90
17385;DHT22;8810;48.680;8.894;2023-03-23T14:06:06;17.40;99.90
17385;DHT22;8810;48.680;8.894;2023-03-23T14:08:39;17.40;99.90
17385;DHT22;8810;48.680;8.894;2023-03-23T14:11:13;17.40;99.90
17385;DHT22;8810;48.680;8.894;2023-03-23T14:13:43;17.40;99.90
17385;DHT22;8810;48.680;8.894;2023-03-23T14:16:16;17.40;99.90
17385;DHT22;8810;48.680;8.894;2023-03-23T14:18:52;17.40;99.90
17385;DHT22;8810;48.680;8.894;2023-03-23T14:21:31;17.30;99.90
17385;DHT22;8810;48.680;8.894;2023-03-23T14:24:03;17.20;99.90
17385;DHT22;8810;48.680;8.894;2023-03-23T14:26:34;17.10;99.90
17385;DHT22;8810;48.680;8.894;2023-03-23T14:29:03;17.10;99.90
17385;DHT22;8810;48.680;8.894;2023-03-23T14:31:31;17.10;99.90
17385;DHT22;8810;48.680;8.894;2023-03-23T14:34:03;17.00;99.90
17385;DHT22;8810;48.680;8.894;2023-03-23T14:36:33;17.00;99.90
17385;DHT22;8810;48.680;8.894;2023-03-23T14:39:04;16.90;99.90
17385;DHT22;8810;48.680;8.894;2023-03-23T14:41:35;16.90;99.90
17385;DHT22;8810;48.680;8.894;2023-03-23T14:44:05;16.90;99.90
17385;DHT22;8810;48.680;8.894;2023-03-23T14:46:33;16.90;99.90
17385;DHT22;8810;48.680;8.894;2023-03-23T14:49:03;16.90;99.90
17385;DHT22;8810;48.680;8.894;2023-03-23T14:51:31;16.90;99.90
17385;DHT22;8810;48.680;8.894;2023-03-23T14:53:59;16.90;99.90
17385;DHT22;8810;48.680;8.894;2023-03-23T14:56:33;16.80;99.90
17385;DHT22;8810;48.680;8.894;2023-03-23T14:59:04;16.90;99.90
17385;DHT22;8810;48.680;8.894;2023-03-23T15:01:33;16.70;99.90
17385;DHT22;8810;48.680;8.894;2023-03-23T15:04:04;16.70;99.90
17385;DHT22;8810;48.680;8.894;2023-03-23T15:06:34;16.80;99.90
17385;DHT22;8810;48.680;8.894;2023-03-23T15:09:05;16.70;99.90
17385;DHT22;8810;48.680;8.894;2023-03-23T15:11:34;16.80;99.90
17385;DHT22;8810;48.680;8.894;2023-03-23T15:14:09;16.80;99.90
17385;DHT22;8810;48.680;8.894;2023-03-23T15:16:36;16.80;99.90
17385;DHT22;8810;48.680;8.894;2023-03-23T15:19:13;16.80;99.90
17385;DHT22;8810;48.680;8.894;2023-03-23T15:21:52;16.70;99.90
17385;DHT22;8810;48.680;8.894;2023-03-23T15:24:25;16.70;99.90
17385;DHT22;8810;48.680;8.894;2023-03-23T15:26:53;16.70;99.90
17385;DHT22;8810;48.680;8.894;2023-03-23T15:29:22;16.70;99.90
17385;DHT22;8810;48.680;8.894;2023-03-23T15:31:51;16.70;99.90
17385;DHT22;8810;48.680;8.894;2023-03-23T15:34:30;16.70;99.90
17385;DHT22;8810;48.680;8.894;2023-03-23T15:37:01;16.70;99.90
17385;DHT22;8810;48.680;8.894;2023-03-23T15:39:29;16.60;99.90
17385;DHT22;8810;48.680;8.894;2023-03-23T15:41:57;16.70;99.90
17385;DHT22;8810;48.680;8.894;2023-03-23T15:44:30;16.60;99.90
17385;DHT22;8810;48.680;8.894;2023-03-23T15:47:14;16.60;99.90
17385;DHT22;8810;48.680;8.894;2023-03-23T15:49:44;16.60;99.90
17385;DHT22;8810;48.680;8.894;2023-03-23T15:52:13;16.70;99.90
17385;DHT22;8810;48.680;8.894;2023-03-23T15:54:46;16.60;99.90
17385;DHT22;8810;48.680;8.894;2023-03-23T15:57:13;16.60;99.90
17385;DHT22;8810;48.680;8.894;2023-03-23T15:59:40;16.70;99.90
17385;DHT22;8810;48.680;8.894;2023-03-23T16:02:15;16.60;99.90
17385;DHT22;8810;48.680;8.894;2023-03-23T16:04:45;16.60;99.90
17385;DHT22;8810;48.680;8.894;2023-03-23T16:07:12;16.60;99.90
17385;DHT22;8810;48.680;8.894;2023-03-23T16:09:39;16.50;99.90